sensor_id;sensor_type;location;lat;lon;timestamp;temperature;humidity
4594;DHT22;2309;51.674;8.368;2023-02-15T06:34:51;-1.90;99.90
4594;DHT22;2309;51.674;8.368;2023-02-15T06:37:49;-1.80;99.90
4594;DHT22;2309;51.674;8.368;2023-02-15T06:40:15;-1.90;99.90
4594;DHT22;2309;51.674;8.368;2023-02-15T06:42:42;-1.90;99.90
4594;DHT22;2309;51.674;8.368;2023-02-15T06:45:12;-2.00;99.90
4594;DHT22;2309;51.674;8.368;2023-02-15T06:47:44;-2.00;99.90
4594;DHT22;2309;51.674;8.368;2023-02-15T06:50:14;-1.80;99.90
4594;DHT22;2309;51.674;8.368;2023-02-15T06:52:43;-1.80;99.90
4594;DHT22;2309;51.674;8.368;2023-02-15T06:55:12;-1.80;99.90
4594;DHT22;2309;51.674;8.368;2023-02-15T06:57:46;-1.70;99.90
4594;DHT22;2309;51.674;8.368;2023-02-15T07:02:56;-1.30;99.90
4594;DHT22;2309;51.674;8.368;2023-02-15T07:05:19;-1.30;99.90
4594;DHT22;2309;51.674;8.368;2023-02-15T07:07:48;-1.30;99.90
4594;DHT22;2309;51.674;8.368;2023-02-15T07:10:14;-1.20;99.90
4594;DHT22;2309;51.674;8.368;2023-02-15T07:12:41;-1.10;99.90
4594;DHT22;2309;51.674;8.368;2023-02-15T07:15:09;-1.10;99.90
4594;DHT22;2309;51.674;8.368;2023-02-15T07:17:36;-0.90;99.90
4594;DHT22;2309;51.674;8.368;2023-02-15T07:20:05;-0.80;99.90
4594;DHT22;2309;51.674;8.368;2023-02-15T07:22:33;-0.80;99.90
4594;DHT22;2309;51.674;8.368;2023-02-15T07:25:03;-0.80;99.90
4594;DHT22;2309;51.674;8.368;2023-02-15T07:27:30;-0.70;99.90
4594;DHT22;2309;51.674;8.368;2023-02-15T07:29:58;-0.50;99.90
4594;DHT22;2309;51.674;8.368;2023-02-15T07:32:27;-0.50;99.90
4594;DHT22;2309;51.674;8.368;2023-02-15T07:34:53;-0.30;99.90
4594;DHT22;2309;51.674;8.368;2023-02-15T07:37:20;-0.20;99.90
4594;DHT22;2309;51.674;8.368;2023-02-15T07:39:47;-0.10;99.90
4594;DHT22;2309;51.674;8.368;2023-02-15T07:42:14;-0.10;99.90
4594;DHT22;2309;51.674;8.368;2023-02-15T07:44:41;0.00;99.90
4594;DHT22;2309;51.674;8.368;2023-02-15T07:47:10;0.30;99.90
4594;DHT22;2309;51.674;8.368;2023-02-15T07:49:38;0.40;99.90
4594;DHT22;2309;51.674;8.368;2023-02-15T07:52:09;0.20;99.90
4594;DHT22;2309;51.674;8.368;2023-02-15T07:54:41;0.50;99.90
4594;DHT22;2309;51.674;8.368;2023-02-15T07:57:12;0.60;99.90
4594;DHT22;2309;51.674;8.368;2023-02-15T07:59:40;0.70;99.90
4594;DHT22;2309;51.674;8.368;2023-02-15T08:02:10;0.80;99.90
4594;DHT22;2309;51.674;8.368;2023-02-15T08:04:38;1.30;99.90
4594;DHT22;2309;51.674;8.368;2023-02-15T08:07:07;1.10;99.90
4594;DHT22;2309;51.674;8.368;2023-02-15T08:09:38;1.30;99.90
4594;DHT22;2309;51.674;8.368;2023-02-15T08:12:27;1.40;99.90
4594;DHT22;2309;51.674;8.368;2023-02-15T08:17:26;1.60;99.90
4594;DHT22;2309;51.674;8.368;2023-02-15T08:19:56;1.70;99.90
4594;DHT22;2309;51.674;8.368;2023-02-15T08:22:26;1.80;99.90
4594;DHT22;2309;51.674;8.368;2023-02-15T08:24:56;2.00;99.90
4594;DHT22;2309;51.674;8.368;2023-02-15T08:27:25;2.10;99.90
4594;DHT22;2309;51.674;8.368;2023-02-15T08:29:57;2.20;99.90
4594;DHT22;2309;51.674;8.368;2023-02-15T08:32:24;2.30;99.90
4594;DHT22;2309;51.674;8.368;2023-02-15T08:37:22;2.50;99.90
4594;DHT22;2309;51.674;8.368;2023-02-15T08:39:50;2.70;99.90
4594;DHT22;2309;51.674;8.368;2023-02-15T08:42:17;2.80;99.90
4594;DHT22;2309;51.674;8.368;2023-02-15T08:44:46;3.00;99.90
4594;DHT22;2309;51.674;8.368;2023-02-15T08:47:13;3.10;99.90
4594;DHT22;2309;51.674;8.368;2023-02-15T08:49:40;3.20;99.90
4594;DHT22;2309;51.674;8.368;2023-02-15T08:52:06;3.40;99.90
4594;DHT22;2309;51.674;8.368;2023-02-15T08:54:33;3.60;99.90
4594;DHT22;2309;51.674;8.368;2023-02-15T08:57:00;3.70;99.90
4594;DHT22;2309;51.674;8.368;2023-02-15T08:59:27;3.90;99.90
4594;DHT22;2309;51.674;8.368;2023-02-15T09:01:54;4.00;99.90
4594;DHT22;2309;51.674;8.368;2023-02-15T09:04:21;4.20;99.90
4594;DHT22;2309;51.674;8.368;2023-02-15T09:06:48;4.40;99.90
4594;DHT22;2309;51.674;8.368;2023-02-15T09:09:16;4.60;99.90
4594;DHT22;2309;51.674;8.368;2023-02-15T09:11:44;4.70;99.90
4594;DHT22;2309;51.674;8.368;2023-02-15T09:14:14;4.90;99.90
4594;DHT22;2309;51.674;8.368;2023-02-15T09:16:42;5.10;99.90
4594;DHT22;2309;51.674;8.368;2023-02-15T09:19:14;5.30;99.90
4594;DHT22;2309;51.674;8.368;2023-02-15T09:21:41;5.50;99.90
4594;DHT22;2309;51.674;8.368;2023-02-15T09:26:35;5.50;99.90
4594;DHT22;2309;51.674;8.368;2023-02-15T09:29:03;5.50;99.90
4594;DHT22;2309;51.674;8.368;2023-02-15T09:31:31;5.80;99.90
4594;DHT22;2309;51.674;8.368;2023-02-15T09:58:07;7.20;99.90
4594;DHT22;2309;51.674;8.368;2023-02-15T10:00:31;7.40;99.90
4594;DHT22;2309;51.674;8.368;2023-02-15T10:05:29;7.60;99.90
4594;DHT22;2309;51.674;8.368;2023-02-15T10:12:59;8.10;99.90
4594;DHT22;2309;51.674;8.368;2023-02-15T10:16:12;8.30;99.90
4594;DHT22;2309;51.674;8.368;2023-02-15T10:21:11;8.70;99.90
4594;DHT22;2309;51.674;8.368;2023-02-15T10:24:02;8.90;99.90
4594;DHT22;2309;51.674;8.368;2023-02-15T10:29:05;9.30;92.80
4594;DHT22;2309;51.674;8.368;2023-02-15T10:36:04;9.80;83.00
4594;DHT22;2309;51.674;8.368;2023-02-15T12:12:24;19.70;1.00
4594;DHT22;2309;51.674;8.368;2023-02-15T12:14:46;18.20;1.00
4594;DHT22;2309;51.674;8.368;2023-02-15T12:17:04;18.50;1.00
4594;DHT22;2309;51.674;8.368;2023-02-15T12:19:32;18.20;1.00
4594;DHT22;2309;51.674;8.368;2023-02-15T12:22:01;18.80;1.00
4594;DHT22;2309;51.674;8.368;2023-02-15T12:24:29;19.30;1.00
4594;DHT22;2309;51.674;8.368;2023-02-15T12:27:04;20.10;1.00
4594;DHT22;2309;51.674;8.368;2023-02-15T12:29:26;19.20;1.00
4594;DHT22;2309;51.674;8.368;2023-02-15T12:31:53;18.70;1.00
4594;DHT22;2309;51.674;8.368;2023-02-15T12:34:21;19.30;1.00
4594;DHT22;2309;51.674;8.368;2023-02-15T12:36:50;18.90;1.00
4594;DHT22;2309;51.674;8.368;2023-02-15T12:39:20;18.20;1.00
4594;DHT22;2309;51.674;8.368;2023-02-15T12:44:17;19.40;1.00
4594;DHT22;2309;51.674;8.368;2023-02-15T12:49:17;19.00;1.00
4594;DHT22;2309;51.674;8.368;2023-02-15T12:51:57;18.70;1.00
4594;DHT22;2309;51.674;8.368;2023-02-15T12:54:41;19.60;1.00
4594;DHT22;2309;51.674;8.368;2023-02-15T12:56:38;19.50;1.00
4594;DHT22;2309;51.674;8.368;2023-02-15T12:59:05;20.80;1.00
4594;DHT22;2309;51.674;8.368;2023-02-15T13:01:32;21.70;1.00
4594;DHT22;2309;51.674;8.368;2023-02-15T13:06:27;21.60;1.00
4594;DHT22;2309;51.674;8.368;2023-02-15T13:08:55;21.20;1.00
4594;DHT22;2309;51.674;8.368;2023-02-15T13:11:26;21.00;1.00
4594;DHT22;2309;51.674;8.368;2023-02-15T13:13:51;21.30;1.00
4594;DHT22;2309;51.674;8.368;2023-02-15T13:16:19;21.40;1.00
4594;DHT22;2309;51.674;8.368;2023-02-15T13:18:47;21.70;1.00
4594;DHT22;2309;51.674;8.368;2023-02-15T13:21:16;22.70;1.00
4594;DHT22;2309;51.674;8.368;2023-02-15T13:23:46;22.70;1.00
4594;DHT22;2309;51.674;8.368;2023-02-15T13:26:16;21.90;1.00
4594;DHT22;2309;51.674;8.368;2023-02-15T13:28:45;21.80;1.00
4594;DHT22;2309;51.674;8.368;2023-02-15T13:31:12;22.20;1.00
4594;DHT22;2309;51.674;8.368;2023-02-15T13:33:39;23.10;1.00
4594;DHT22;2309;51.674;8.368;2023-02-15T13:36:09;22.80;1.00
4594;DHT22;2309;51.674;8.368;2023-02-15T13:41:04;21.60;1.00
4594;DHT22;2309;51.674;8.368;2023-02-15T13:43:41;22.00;1.00
4594;DHT22;2309;51.674;8.368;2023-02-15T13:46:26;21.80;1.00
4594;DHT22;2309;51.674;8.368;2023-02-15T13:48:49;21.60;1.00
4594;DHT22;2309;51.674;8.368;2023-02-15T13:51:11;21.70;1.00
4594;DHT22;2309;51.674;8.368;2023-02-15T13:56:09;21.40;1.00
4594;DHT22;2309;51.674;8.368;2023-02-15T14:24:18;22.70;1.00
4594;DHT22;2309;51.674;8.368;2023-02-15T14:27:20;22.40;1.00
4594;DHT22;2309;51.674;8.368;2023-02-15T14:31:44;21.30;1.00
4594;DHT22;2309;51.674;8.368;2023-02-15T14:34:18;21.30;1.00
4594;DHT22;2309;51.674;8.368;2023-02-15T14:36:36;21.90;1.00
4594;DHT22;2309;51.674;8.368;2023-02-15T14:39:11;22.00;1.00
4594;DHT22;2309;51.674;8.368;2023-02-15T14:44:04;21.80;1.00
4594;DHT22;2309;51.674;8.368;2023-02-15T14:49:03;22.60;1.00
4594;DHT22;2309;51.674;8.368;2023-02-15T14:52:03;22.90;1.00
4594;DHT22;2309;51.674;8.368;2023-02-15T14:53:57;22.10;1.00
4594;DHT22;2309;51.674;8.368;2023-02-15T14:56:26;22.20;1.00
4594;DHT22;2309;51.674;8.368;2023-02-15T14:58:55;21.70;1.00
4594;DHT22;2309;51.674;8.368;2023-02-15T15:01:32;21.10;1.00
4594;DHT22;2309;51.674;8.368;2023-02-15T15:03:58;21.30;1.00
4594;DHT22;2309;51.674;8.368;2023-02-15T15:06:27;21.70;1.00
4594;DHT22;2309;51.674;8.368;2023-02-15T15:09:00;21.70;1.00
4594;DHT22;2309;51.674;8.368;2023-02-15T15:19:03;22.10;1.00
4594;DHT22;2309;51.674;8.368;2023-02-15T15:24:04;22.70;1.00
4594;DHT22;2309;51.674;8.368;2023-02-15T15:28:59;22.50;1.00
4594;DHT22;2309;51.674;8.368;2023-02-15T15:31:32;22.30;1.00
4594;DHT22;2309;51.674;8.368;2023-02-15T15:34:31;20.60;1.00
4594;DHT22;2309;51.674;8.368;2023-02-15T15:37:00;19.90;1.00
4594;DHT22;2309;51.674;8.368;2023-02-15T15:46:25;17.60;1.00
4594;DHT22;2309;51.674;8.368;2023-02-15T15:48:45;16.90;1.00
4594;DHT22;2309;51.674;8.368;2023-02-15T15:51:14;16.30;1.00
4594;DHT22;2309;51.674;8.368;2023-02-15T15:53:42;15.90;1.00
4594;DHT22;2309;51.674;8.368;2023-02-15T15:56:12;15.80;1.00
4594;DHT22;2309;51.674;8.368;2023-02-15T15:58:41;15.00;1.00
4594;DHT22;2309;51.674;8.368;2023-02-15T16:01:13;13.40;1.00
4594;DHT22;2309;51.674;8.368;2023-02-15T16:03:48;14.40;1.30
4594;DHT22;2309;51.674;8.368;2023-02-15T16:06:13;14.00;5.40
4594;DHT22;2309;51.674;8.368;2023-02-15T16:08:40;13.50;8.40
4594;DHT22;2309;51.674;8.368;2023-02-15T16:11:13;13.60;9.30
4594;DHT22;2309;51.674;8.368;2023-02-15T16:13:35;13.30;12.50
4594;DHT22;2309;51.674;8.368;2023-02-15T16:16:02;13.00;17.60
4594;DHT22;2309;51.674;8.368;2023-02-15T16:18:29;12.80;19.10
4594;DHT22;2309;51.674;8.368;2023-02-15T16:20:58;12.40;23.90
4594;DHT22;2309;51.674;8.368;2023-02-15T16:23:31;12.20;23.80
4594;DHT22;2309;51.674;8.368;2023-02-15T16:26:03;12.00;27.70
4594;DHT22;2309;51.674;8.368;2023-02-15T16:28:21;11.60;29.90
4594;DHT22;2309;51.674;8.368;2023-02-15T16:30:55;11.30;35.80
4594;DHT22;2309;51.674;8.368;2023-02-15T16:33:16;11.20;38.70
4594;DHT22;2309;51.674;8.368;2023-02-15T16:35:54;10.80;42.90
4594;DHT22;2309;51.674;8.368;2023-02-15T16:38:14;10.30;43.00
4594;DHT22;2309;51.674;8.368;2023-02-15T16:40:42;10.50;50.20
4594;DHT22;2309;51.674;8.368;2023-02-15T16:43:18;10.20;51.90
4594;DHT22;2309;51.674;8.368;2023-02-15T16:45:37;10.00;54.20
4594;DHT22;2309;51.674;8.368;2023-02-15T16:48:06;9.80;58.50
4594;DHT22;2309;51.674;8.368;2023-02-15T16:50:33;9.30;63.40
4594;DHT22;2309;51.674;8.368;2023-02-15T16:53:01;9.00;68.20
4594;DHT22;2309;51.674;8.368;2023-02-15T16:55:35;9.20;82.00
4594;DHT22;2309;51.674;8.368;2023-02-15T16:57:59;9.00;85.00
4594;DHT22;2309;51.674;8.368;2023-02-15T17:00:30;8.80;92.70
4594;DHT22;2309;51.674;8.368;2023-02-15T17:03:00;8.70;95.20
4594;DHT22;2309;51.674;8.368;2023-02-15T17:05:32;8.60;96.10
4594;DHT22;2309;51.674;8.368;2023-02-15T17:08:06;8.40;99.80
4594;DHT22;2309;51.674;8.368;2023-02-15T17:10:29;8.20;99.90
4594;DHT22;2309;51.674;8.368;2023-02-15T17:12:55;8.20;99.90
4594;DHT22;2309;51.674;8.368;2023-02-15T17:15:32;8.20;99.90
4594;DHT22;2309;51.674;8.368;2023-02-15T17:17:52;8.00;99.90
4594;DHT22;2309;51.674;8.368;2023-02-15T17:20:19;7.90;99.90
4594;DHT22;2309;51.674;8.368;2023-02-15T17:22:47;7.80;99.90
4594;DHT22;2309;51.674;8.368;2023-02-15T17:25:20;7.70;99.90
4594;DHT22;2309;51.674;8.368;2023-02-15T17:27:44;7.60;99.90
4594;DHT22;2309;51.674;8.368;2023-02-15T17:30:15;7.60;99.90
4594;DHT22;2309;51.674;8.368;2023-02-15T17:32:51;7.30;99.90
4594;DHT22;2309;51.674;8.368;2023-02-15T17:35:19;7.80;99.90
4594;DHT22;2309;51.674;8.368;2023-02-15T17:40:23;7.00;99.90
4594;DHT22;2309;51.674;8.368;2023-02-15T17:42:34;7.00;99.90
4594;DHT22;2309;51.674;8.368;2023-02-15T17:45:04;6.80;99.90
4594;DHT22;2309;51.674;8.368;2023-02-15T17:47:31;6.80;99.90
4594;DHT22;2309;51.674;8.368;2023-02-15T17:50:04;6.70;99.90
4594;DHT22;2309;51.674;8.368;2023-02-15T17:52:26;6.60;99.90
